createdAt,value
2018-07-30T00:00:00.486Z,0.00
2018-07-30T00:01:00.677Z,0.00
2018-07-30T00:02:00.860Z,0.00
2018-07-30T00:03:01.046Z,0.00
2018-07-30T00:04:01.233Z,0.00
2018-07-30T00:05:01.418Z,0.00
2018-07-30T00:06:01.611Z,0.00
2018-07-30T00:07:01.797Z,0.00
2018-07-30T00:08:02.004Z,0.00
2018-07-30T00:09:02.161Z,0.00
2018-07-30T00:10:02.346Z,0.00
2018-07-30T00:11:02.529Z,0.00
2018-07-30T00:12:02.711Z,0.00
2018-07-30T00:13:02.904Z,0.00
2018-07-30T00:14:03.091Z,0.00
2018-07-30T00:15:03.274Z,0.00
2018-07-30T00:16:03.451Z,0.00
2018-07-30T00:17:03.655Z,0.00
2018-07-30T00:18:03.844Z,0.00
2018-07-30T00:19:04.018Z,0.00
2018-07-30T00:20:04.209Z,0.00
2018-07-30T00:21:04.382Z,0.00
2018-07-30T00:22:04.593Z,0.00
2018-07-30T00:23:04.795Z,0.00
2018-07-30T00:24:04.984Z,0.00
2018-07-30T00:25:05.162Z,0.00
2018-07-30T00:26:05.330Z,0.00
2018-07-30T00:27:05.527Z,0.00
2018-07-30T00:28:05.710Z,0.00
2018-07-30T00:29:05.928Z,0.00
2018-07-30T00:30:06.128Z,0.00
2018-07-30T00:31:06.280Z,0.00
2018-07-30T00:32:06.463Z,0.00
2018-07-30T00:33:06.637Z,0.00
2018-07-30T00:34:06.817Z,0.00
2018-07-30T00:35:07.003Z,0.00
2018-07-30T00:36:07.174Z,0.00
2018-07-30T00:37:07.383Z,0.00
2018-07-30T00:38:07.554Z,0.00
2018-07-30T00:39:07.754Z,0.00
2018-07-30T00:40:07.936Z,0.00
2018-07-30T00:41:08.124Z,0.00
2018-07-30T00:42:08.304Z,0.00
2018-07-30T00:43:08.488Z,0.00
2018-07-30T00:44:08.672Z,0.00
2018-07-30T00:46:52.054Z,0.00
2018-07-30T00:47:51.776Z,0.00
2018-07-30T00:48:51.939Z,0.00
2018-07-30T00:49:52.119Z,0.00
2018-07-30T00:50:52.311Z,0.00
2018-07-30T00:51:52.501Z,0.00
2018-07-30T00:52:52.681Z,0.00
2018-07-30T00:53:52.854Z,0.00
2018-07-30T00:54:53.061Z,0.00
2018-07-30T00:55:53.205Z,0.00
2018-07-30T00:56:53.501Z,0.00
2018-07-30T00:57:53.553Z,0.00
2018-07-30T00:58:53.737Z,0.00
2018-07-30T00:59:53.923Z,0.00
2018-07-30T01:00:54.108Z,0.00
2018-07-30T01:01:54.288Z,0.00
2018-07-30T01:02:54.502Z,0.00
2018-07-30T01:03:54.701Z,0.00
2018-07-30T01:04:54.849Z,0.00
2018-07-30T01:05:55.043Z,0.00
2018-07-30T01:06:55.206Z,0.00
2018-07-30T01:07:55.386Z,0.00
2018-07-30T01:08:55.572Z,0.00
2018-07-30T01:09:55.759Z,0.00
2018-07-30T01:10:55.947Z,0.00
2018-07-30T01:11:56.142Z,0.00
2018-07-30T01:12:56.335Z,0.00
2018-07-30T01:13:56.517Z,0.00
2018-07-30T01:14:56.717Z,0.00
2018-07-30T01:15:56.871Z,0.00
2018-07-30T01:16:57.055Z,0.00
2018-07-30T01:17:57.255Z,0.00
2018-07-30T01:18:57.444Z,0.00
2018-07-30T01:19:57.609Z,0.00
2018-07-30T01:20:57.793Z,0.00
2018-07-30T01:21:57.978Z,0.00
2018-07-30T01:22:58.153Z,0.00
2018-07-30T01:23:58.362Z,0.00
2018-07-30T01:24:58.571Z,0.00
2018-07-30T01:25:58.755Z,0.00
2018-07-30T01:26:58.945Z,0.00
2018-07-30T01:27:59.125Z,0.00
2018-07-30T01:28:59.311Z,0.00
2018-07-30T01:29:59.487Z,0.00
2018-07-30T01:30:59.647Z,0.00
2018-07-30T01:31:59.836Z,0.00
2018-07-30T01:33:00.056Z,0.00
2018-07-30T01:34:00.227Z,0.00
2018-07-30T01:35:00.404Z,0.00
2018-07-30T01:36:00.588Z,0.00
2018-07-30T01:37:00.759Z,0.00
2018-07-30T01:38:00.940Z,0.00
2018-07-30T01:39:01.126Z,0.00
2018-07-30T01:40:01.316Z,0.00
2018-07-30T01:41:01.497Z,0.00
2018-07-30T01:42:01.692Z,0.00
2018-07-30T01:43:01.881Z,0.00
2018-07-30T01:44:02.073Z,0.00
2018-07-30T01:45:02.248Z,0.00
2018-07-30T01:46:02.454Z,0.00
2018-07-30T01:47:02.632Z,0.00
2018-07-30T01:48:02.818Z,0.00
2018-07-30T01:49:02.998Z,0.00
2018-07-30T01:50:03.184Z,0.00
2018-07-30T01:51:03.371Z,0.00
2018-07-30T01:52:03.555Z,0.00
2018-07-30T01:53:03.736Z,0.00
2018-07-30T01:54:03.916Z,0.00
2018-07-30T01:55:04.093Z,0.00
2018-07-30T01:56:04.297Z,0.00
2018-07-30T01:57:04.480Z,0.00
2018-07-30T01:58:04.670Z,0.00
2018-07-30T01:59:04.861Z,0.00
2018-07-30T02:00:05.044Z,0.00
2018-07-30T02:01:05.239Z,0.00
2018-07-30T02:02:05.417Z,0.00
2018-07-30T02:03:05.611Z,0.00
2018-07-30T02:04:05.779Z,0.00
2018-07-30T02:05:05.966Z,0.00
2018-07-30T02:06:06.144Z,0.00
2018-07-30T02:07:06.372Z,0.00
2018-07-30T02:08:06.502Z,0.00
2018-07-30T02:10:49.397Z,0.00
2018-07-30T02:11:49.568Z,0.00
2018-07-30T02:12:49.755Z,0.00
2018-07-30T02:13:50.045Z,0.00
2018-07-30T02:14:50.104Z,0.00
2018-07-30T02:15:50.291Z,0.00
2018-07-30T02:16:50.469Z,0.00
2018-07-30T02:17:50.659Z,0.00
2018-07-30T02:18:50.830Z,0.00
2018-07-30T02:19:51.026Z,0.00
2018-07-30T02:20:51.209Z,0.00
2018-07-30T02:21:51.379Z,0.00
2018-07-30T02:22:51.590Z,0.00
2018-07-30T02:23:51.757Z,0.00
2018-07-30T02:24:51.944Z,0.00
2018-07-30T02:25:52.127Z,0.00
2018-07-30T02:26:52.316Z,0.00
2018-07-30T02:27:52.483Z,0.00
2018-07-30T02:28:52.672Z,0.00
2018-07-30T02:29:52.851Z,0.00
2018-07-30T02:30:53.036Z,0.00
2018-07-30T02:31:53.228Z,0.00
2018-07-30T02:32:53.406Z,0.00
2018-07-30T02:33:53.587Z,0.00
2018-07-30T02:34:53.774Z,0.00
2018-07-30T02:35:53.956Z,0.00
2018-07-30T02:36:54.154Z,0.00
2018-07-30T02:37:54.338Z,0.00
2018-07-30T02:38:54.512Z,0.00
2018-07-30T02:39:54.719Z,0.00
2018-07-30T02:40:54.918Z,0.00
2018-07-30T02:41:55.082Z,0.00
2018-07-30T02:42:55.260Z,0.00
2018-07-30T02:43:55.441Z,0.00
2018-07-30T02:44:55.620Z,0.00
2018-07-30T02:45:55.798Z,0.00
2018-07-30T02:46:55.977Z,0.00
2018-07-30T02:47:56.144Z,0.00
2018-07-30T02:48:56.320Z,0.00
2018-07-30T02:49:56.520Z,0.00
2018-07-30T02:50:56.693Z,0.00
2018-07-30T02:51:56.879Z,0.00
2018-07-30T02:52:57.059Z,0.00
2018-07-30T02:53:57.243Z,0.00
2018-07-30T02:54:57.429Z,0.00
2018-07-30T02:55:57.622Z,0.00
2018-07-30T02:56:57.798Z,0.00
2018-07-30T02:57:57.966Z,0.00
2018-07-30T02:58:58.146Z,0.00
2018-07-30T02:59:58.343Z,0.00
2018-07-30T03:00:58.511Z,4.00
2018-07-30T03:01:58.697Z,4.00
2018-07-30T03:02:58.873Z,0.00
2018-07-30T03:03:59.055Z,0.00
2018-07-30T03:04:59.244Z,4.00
2018-07-30T03:05:59.441Z,4.00
2018-07-30T03:06:59.625Z,4.00
2018-07-30T03:07:59.782Z,4.00
2018-07-30T03:08:59.969Z,8.00
2018-07-30T03:10:00.157Z,4.00
2018-07-30T03:11:00.321Z,4.00
2018-07-30T03:12:00.536Z,8.00
2018-07-30T03:13:00.724Z,8.00
2018-07-30T03:14:00.884Z,12.00
2018-07-30T03:15:01.096Z,12.00
2018-07-30T03:16:01.268Z,12.00
2018-07-30T03:17:01.440Z,16.00
2018-07-30T03:18:01.619Z,16.00
2018-07-30T03:19:01.794Z,20.00
2018-07-30T03:20:01.985Z,24.00
2018-07-30T03:21:02.160Z,28.00
2018-07-30T03:22:02.350Z,32.00
2018-07-30T03:23:02.528Z,36.00
2018-07-30T03:24:02.736Z,44.00
2018-07-30T03:25:02.911Z,48.00
2018-07-30T03:26:03.091Z,56.00
2018-07-30T03:27:03.320Z,60.00
2018-07-30T03:28:03.455Z,72.00
2018-07-30T03:29:03.648Z,76.00
2018-07-30T03:30:03.858Z,88.00
2018-07-30T03:31:04.040Z,96.00
2018-07-30T03:32:04.212Z,108.00
2018-07-30T03:33:04.410Z,120.00
2018-07-30T03:34:04.591Z,132.00
2018-07-30T03:35:04.770Z,144.00
2018-07-30T03:36:04.959Z,160.00
2018-07-30T03:37:05.187Z,172.00
2018-07-30T03:38:05.311Z,192.00
2018-07-30T03:39:05.503Z,208.00
2018-07-30T03:40:05.687Z,228.00
2018-07-30T03:41:05.892Z,244.00
2018-07-30T03:42:06.074Z,268.00
2018-07-30T03:43:06.265Z,288.00
2018-07-30T03:44:06.453Z,308.00
2018-07-30T03:45:06.629Z,332.00
2018-07-30T03:46:06.814Z,356.00
2018-07-30T03:47:07.000Z,388.00
2018-07-30T03:48:07.243Z,420.00
2018-07-30T03:49:07.370Z,456.00
2018-07-30T03:50:07.587Z,500.00
2018-07-30T03:51:07.787Z,544.00
2018-07-30T03:52:07.988Z,588.00
2018-07-30T03:53:08.199Z,636.00
2018-07-30T03:54:08.378Z,676.00
2018-07-30T03:55:08.577Z,724.00
2018-07-30T03:56:08.759Z,772.00
2018-07-30T03:57:08.929Z,824.00
2018-07-30T03:58:09.154Z,876.00
2018-07-30T03:59:09.298Z,928.00
2018-07-30T04:00:09.582Z,988.00
2018-07-30T04:01:09.668Z,1044.00
2018-07-30T04:02:09.846Z,1104.00
2018-07-30T04:03:10.031Z,1164.00
2018-07-30T04:04:10.205Z,1228.00
2018-07-30T04:05:10.394Z,1284.00
2018-07-30T04:06:10.588Z,1348.00
2018-07-30T04:07:10.744Z,1408.00
2018-07-30T04:08:10.945Z,1472.00
2018-07-30T04:09:11.133Z,1536.00
2018-07-30T04:10:11.317Z,1600.00
2018-07-30T04:11:11.506Z,1664.00
2018-07-30T04:12:11.697Z,1728.00
2018-07-30T04:13:11.872Z,1792.00
2018-07-30T04:14:12.051Z,1856.00
2018-07-30T04:15:12.245Z,1924.00
2018-07-30T04:16:12.438Z,2000.00
2018-07-30T04:17:12.649Z,2084.00
2018-07-30T04:18:12.828Z,2188.00
2018-07-30T04:19:13.007Z,2224.00
2018-07-30T04:20:13.196Z,2308.00
2018-07-30T04:21:13.372Z,2532.00
2018-07-30T04:23:56.264Z,2612.00
2018-07-30T04:24:56.441Z,2776.00
2018-07-30T04:25:57.174Z,2744.00
2018-07-30T04:26:56.798Z,2792.00
2018-07-30T04:27:56.981Z,2812.00
2018-07-30T04:28:57.171Z,2896.00
2018-07-30T04:29:57.354Z,2968.00
2018-07-30T04:30:58.181Z,3040.00
2018-07-30T04:31:57.762Z,3108.00
2018-07-30T04:32:57.922Z,3152.00
2018-07-30T04:33:58.101Z,3196.00
2018-07-30T04:34:58.291Z,3268.00
2018-07-30T04:35:58.468Z,3380.00
2018-07-30T04:36:58.654Z,3484.00
2018-07-30T04:37:58.828Z,3408.00
2018-07-30T04:40:42.213Z,3772.00
2018-07-30T04:41:41.899Z,3832.00
2018-07-30T04:42:42.081Z,4016.00
2018-07-30T04:43:42.313Z,4120.00
2018-07-30T04:44:42.450Z,4164.00
2018-07-30T04:45:42.630Z,4184.00
2018-07-30T04:46:42.814Z,4280.00
2018-07-30T04:47:43.004Z,4520.00
2018-07-30T04:48:43.177Z,4468.00
2018-07-30T04:49:43.348Z,4464.00
2018-07-30T04:50:43.548Z,4980.00
2018-07-30T04:51:43.735Z,5404.00
2018-07-30T04:52:43.947Z,5816.00
2018-07-30T04:53:44.142Z,6096.00
2018-07-30T04:54:44.322Z,6048.00
2018-07-30T04:55:44.526Z,6156.00
2018-07-30T04:56:44.725Z,6280.00
2018-07-30T04:57:44.897Z,6364.00
2018-07-30T04:58:45.079Z,6712.00
2018-07-30T04:59:45.291Z,6788.00
2018-07-30T05:00:45.463Z,6808.00
2018-07-30T05:01:45.649Z,6716.00
2018-07-30T05:02:45.836Z,6828.00
2018-07-30T05:03:46.031Z,6956.00
2018-07-30T05:04:46.207Z,7748.00
2018-07-30T05:05:46.399Z,9636.00
2018-07-30T05:06:46.592Z,10812.00
2018-07-30T05:07:46.770Z,11040.00
2018-07-30T05:08:46.955Z,16288.00
2018-07-30T05:09:47.130Z,11676.00
2018-07-30T05:10:47.309Z,10420.00
2018-07-30T05:11:47.511Z,10472.00
2018-07-30T05:12:47.691Z,10832.00
2018-07-30T05:13:47.878Z,11996.00
2018-07-30T05:14:48.061Z,17504.00
2018-07-30T05:15:48.247Z,29984.00
2018-07-30T05:16:48.435Z,31904.00
2018-07-30T05:17:48.622Z,44128.00
2018-07-30T05:18:48.830Z,56864.00
2018-07-30T05:19:49.001Z,57280.00
2018-07-30T05:20:49.193Z,63776.00
2018-07-30T05:21:49.384Z,63776.00
2018-07-30T05:22:49.562Z,63296.00
2018-07-30T05:25:34.457Z,62592.00
2018-07-30T05:26:32.616Z,45280.00
2018-07-30T05:27:32.805Z,40640.00
2018-07-30T05:28:32.994Z,36352.00
2018-07-30T05:29:33.203Z,33664.00
2018-07-30T05:30:33.398Z,22496.00
2018-07-30T05:31:33.588Z,15936.00
2018-07-30T05:32:33.779Z,14004.00
2018-07-30T05:33:33.930Z,13592.00
2018-07-30T05:34:34.163Z,14100.00
2018-07-30T05:35:34.301Z,15968.00
2018-07-30T05:36:34.491Z,27744.00
2018-07-30T05:37:34.692Z,39040.00
2018-07-30T05:38:34.851Z,55072.00
2018-07-30T05:39:35.035Z,55616.00
2018-07-30T05:40:35.222Z,62176.00
2018-07-30T05:41:35.397Z,84576.00
2018-07-30T05:42:35.600Z,68000.00
2018-07-30T05:43:35.799Z,73824.00
2018-07-30T05:44:35.989Z,50272.00
2018-07-30T05:45:36.200Z,74720.00
2018-07-30T05:46:36.383Z,85024.00
2018-07-30T05:47:36.574Z,72640.00
2018-07-30T05:48:36.769Z,76064.00
2018-07-30T05:49:36.964Z,39072.00
2018-07-30T05:50:37.137Z,18336.00
2018-07-30T05:51:37.337Z,24576.00
2018-07-30T05:52:37.532Z,66016.00
2018-07-30T05:53:37.723Z,63936.00
2018-07-30T05:54:37.904Z,70528.00
2018-07-30T05:55:38.095Z,84064.00
2018-07-30T05:56:38.281Z,75136.00
2018-07-30T05:57:38.457Z,85344.00
2018-07-30T05:58:38.655Z,79968.00
2018-07-30T05:59:38.916Z,86240.00
2018-07-30T06:00:39.090Z,79360.00
2018-07-30T06:01:39.276Z,90432.00
2018-07-30T06:04:24.166Z,92960.00
2018-07-30T06:05:22.367Z,93888.00
2018-07-30T06:06:22.557Z,91808.00
2018-07-30T06:07:22.743Z,87264.00
2018-07-30T06:08:22.949Z,89600.00
2018-07-30T06:09:23.165Z,91456.00
2018-07-30T06:10:23.372Z,94400.00
2018-07-30T06:11:23.540Z,96288.00
2018-07-30T06:12:23.749Z,91616.00
2018-07-30T06:13:23.927Z,87936.00
2018-07-30T06:14:24.115Z,85376.00
2018-07-30T06:15:24.300Z,88288.00
2018-07-30T06:16:24.518Z,92672.00
2018-07-30T06:17:24.722Z,93280.00
2018-07-30T06:18:24.961Z,93984.00
2018-07-30T06:19:25.159Z,95424.00
2018-07-30T06:20:25.344Z,95744.00
2018-07-30T06:21:25.538Z,94496.00
2018-07-30T06:22:25.745Z,94240.00
2018-07-30T06:23:25.943Z,94528.00
2018-07-30T06:24:26.140Z,93664.00
2018-07-30T06:25:26.333Z,95168.00
2018-07-30T06:26:26.587Z,96864.00
2018-07-30T06:27:26.833Z,90560.00
2018-07-30T06:28:26.969Z,84640.00
2018-07-30T06:29:27.176Z,90272.00
2018-07-30T06:30:27.368Z,89120.00
2018-07-30T06:31:27.575Z,86880.00
2018-07-30T06:32:27.771Z,93632.00
2018-07-30T06:33:27.959Z,93344.00
2018-07-30T06:34:28.161Z,89344.00
2018-07-30T06:35:28.367Z,90912.00
2018-07-30T06:36:28.566Z,93376.00
2018-07-30T06:37:28.769Z,93664.00
2018-07-30T06:38:29.013Z,94144.00
2018-07-30T06:39:29.156Z,88960.00
2018-07-30T06:40:29.356Z,82720.00
2018-07-30T06:41:29.569Z,80448.00
2018-07-30T06:42:29.748Z,84352.00
2018-07-30T06:43:29.963Z,89344.00
2018-07-30T06:44:30.164Z,87424.00
2018-07-30T06:45:30.369Z,85984.00
2018-07-30T06:46:30.577Z,87488.00
2018-07-30T06:47:30.761Z,88736.00
2018-07-30T06:48:30.953Z,88992.00
2018-07-30T06:49:31.154Z,89024.00
2018-07-30T06:50:31.360Z,86112.00
2018-07-30T06:51:31.561Z,84704.00
2018-07-30T06:52:31.759Z,80224.00
2018-07-30T06:53:31.957Z,80096.00
2018-07-30T06:54:32.148Z,81312.00
2018-07-30T06:55:32.350Z,84000.00
2018-07-30T06:56:32.541Z,88672.00
2018-07-30T06:57:32.760Z,91456.00
2018-07-30T06:58:32.958Z,94592.00
2018-07-30T06:59:33.161Z,96992.00
2018-07-30T07:00:33.362Z,97792.00
2018-07-30T07:01:33.565Z,98848.00
2018-07-30T07:02:33.767Z,99296.00
2018-07-30T07:03:33.961Z,97536.00
2018-07-30T07:04:34.188Z,95648.00
2018-07-30T07:05:34.373Z,91968.00
2018-07-30T07:06:34.579Z,88896.00
2018-07-30T07:07:34.792Z,89152.00
2018-07-30T07:08:34.998Z,91456.00
2018-07-30T07:09:35.203Z,92768.00
2018-07-30T07:10:35.428Z,95168.00
2018-07-30T07:11:35.623Z,93632.00
2018-07-30T07:12:35.831Z,92736.00
2018-07-30T07:13:36.032Z,90784.00
2018-07-30T07:14:36.256Z,88096.00
2018-07-30T07:15:36.457Z,88064.00
2018-07-30T07:16:36.717Z,88640.00
2018-07-30T07:17:36.880Z,89472.00
2018-07-30T07:18:37.073Z,90176.00
2018-07-30T07:19:37.272Z,90080.00
2018-07-30T07:20:37.506Z,90016.00
2018-07-30T07:21:37.721Z,92000.00
2018-07-30T07:22:37.864Z,90720.00
2018-07-30T07:23:38.080Z,88576.00
2018-07-30T07:24:38.270Z,89056.00
2018-07-30T07:25:38.474Z,89408.00
2018-07-30T07:26:38.674Z,92192.00
2018-07-30T07:27:38.861Z,89344.00
2018-07-30T07:28:39.072Z,88384.00
2018-07-30T07:29:39.271Z,93952.00
2018-07-30T07:30:39.469Z,97376.00
2018-07-30T07:31:39.678Z,97344.00
2018-07-30T07:32:39.883Z,98016.00
2018-07-30T07:33:40.101Z,96224.00
2018-07-30T07:34:40.298Z,96384.00
2018-07-30T07:35:40.495Z,96160.00
2018-07-30T07:36:40.687Z,93088.00
2018-07-30T07:37:40.929Z,90048.00
2018-07-30T07:38:41.118Z,88096.00
2018-07-30T07:39:41.319Z,88448.00
2018-07-30T07:40:41.524Z,91616.00
2018-07-30T07:41:41.719Z,91136.00
2018-07-30T07:42:41.902Z,91104.00
2018-07-30T07:43:42.130Z,90144.00
2018-07-30T07:44:42.358Z,89376.00
2018-07-30T07:45:42.548Z,88704.00
2018-07-30T07:46:42.743Z,88480.00
2018-07-30T07:47:42.943Z,89408.00
2018-07-30T07:48:43.143Z,89696.00
2018-07-30T07:49:43.331Z,88832.00
2018-07-30T07:50:43.669Z,90144.00
2018-07-30T07:51:43.752Z,91712.00
2018-07-30T07:52:43.959Z,93344.00
2018-07-30T07:53:44.174Z,92608.00
2018-07-30T07:54:44.344Z,92000.00
2018-07-30T07:55:44.545Z,96608.00
2018-07-30T07:56:44.741Z,97824.00
2018-07-30T07:57:44.964Z,98080.00
2018-07-30T07:58:45.157Z,98304.00
2018-07-30T07:59:45.350Z,94752.00
2018-07-30T08:00:45.547Z,86720.00
2018-07-30T08:01:45.749Z,85600.00
2018-07-30T08:02:45.945Z,91776.00
2018-07-30T08:03:46.138Z,93536.00
2018-07-30T08:04:46.352Z,90688.00
2018-07-30T08:05:46.562Z,88160.00
2018-07-30T08:06:46.763Z,85408.00
2018-07-30T08:07:46.944Z,82880.00
2018-07-30T08:08:47.150Z,82176.00
2018-07-30T08:09:47.420Z,86752.00
2018-07-30T08:10:47.589Z,90752.00
2018-07-30T08:11:47.757Z,85408.00
2018-07-30T08:12:47.960Z,62112.00
2018-07-30T08:13:48.146Z,32608.00
2018-07-30T08:14:48.356Z,21792.00
2018-07-30T08:15:48.550Z,19904.00
2018-07-30T08:16:48.742Z,19360.00
2018-07-30T08:17:48.936Z,19424.00
2018-07-30T08:18:49.140Z,18688.00
2018-07-30T08:19:49.339Z,18752.00
2018-07-30T08:20:49.544Z,18720.00
2018-07-30T08:21:49.745Z,18752.00
2018-07-30T08:22:49.934Z,16896.00
2018-07-30T08:23:50.132Z,17728.00
2018-07-30T08:24:50.317Z,17376.00
2018-07-30T08:25:50.519Z,17472.00
2018-07-30T08:26:50.697Z,17472.00
2018-07-30T08:27:50.892Z,17088.00
2018-07-30T08:28:51.090Z,16640.00
2018-07-30T08:29:51.277Z,16640.00
2018-07-30T08:30:51.492Z,16608.00
2018-07-30T08:31:51.687Z,16864.00
2018-07-30T08:32:51.892Z,16416.00
2018-07-30T08:33:52.063Z,16512.00
2018-07-30T08:34:52.260Z,16416.00
2018-07-30T08:35:52.460Z,16768.00
2018-07-30T08:36:52.652Z,16576.00
2018-07-30T08:37:52.847Z,16832.00
2018-07-30T08:38:53.042Z,16640.00
2018-07-30T08:39:53.239Z,18144.00
2018-07-30T08:40:53.429Z,18016.00
2018-07-30T08:41:53.611Z,18016.00
2018-07-30T08:42:53.826Z,18752.00
2018-07-30T08:43:54.022Z,19424.00
2018-07-30T08:44:54.224Z,18496.00
2018-07-30T08:45:54.409Z,19584.00
2018-07-30T08:46:54.598Z,23296.00
2018-07-30T08:47:54.808Z,25088.00
2018-07-30T08:48:55.068Z,26560.00
2018-07-30T08:49:55.188Z,24736.00
2018-07-30T08:50:55.394Z,22400.00
2018-07-30T08:51:55.591Z,24864.00
2018-07-30T08:52:55.799Z,28224.00
2018-07-30T08:53:55.970Z,33376.00
2018-07-30T08:54:56.176Z,36128.00
2018-07-30T08:55:56.369Z,38528.00
2018-07-30T08:56:56.554Z,38816.00
2018-07-30T08:57:56.732Z,37184.00
2018-07-30T08:58:56.915Z,36992.00
2018-07-30T08:59:57.131Z,40384.00
2018-07-30T09:00:57.327Z,47392.00
2018-07-30T09:01:57.528Z,48672.00
2018-07-30T09:02:57.724Z,49440.00
2018-07-30T09:03:57.907Z,54752.00
2018-07-30T09:04:58.102Z,58208.00
2018-07-30T09:05:58.297Z,56544.00
2018-07-30T09:06:58.494Z,54592.00
2018-07-30T09:07:58.686Z,54912.00
2018-07-30T09:08:58.868Z,52864.00
2018-07-30T09:09:59.059Z,44768.00
2018-07-30T09:10:59.245Z,37216.00
2018-07-30T09:11:59.454Z,29440.00
2018-07-30T09:12:59.625Z,25280.00
2018-07-30T09:13:59.822Z,21248.00
2018-07-30T09:15:00.024Z,20064.00
2018-07-30T09:16:00.221Z,18176.00
2018-07-30T09:17:00.408Z,14564.00
2018-07-30T09:18:00.583Z,12716.00
2018-07-30T09:19:00.777Z,13128.00
2018-07-30T09:20:00.961Z,11164.00
2018-07-30T09:21:01.148Z,7724.00
2018-07-30T09:22:01.342Z,7872.00
2018-07-30T09:23:01.535Z,7520.00
2018-07-30T09:24:01.742Z,7792.00
2018-07-30T09:25:01.923Z,8272.00
2018-07-30T09:26:02.122Z,8424.00
2018-07-30T09:27:02.308Z,8808.00
2018-07-30T09:28:02.495Z,9032.00
2018-07-30T09:29:02.679Z,9144.00
2018-07-30T09:30:02.872Z,9412.00
2018-07-30T09:31:03.053Z,9116.00
2018-07-30T09:32:03.258Z,9192.00
2018-07-30T09:33:03.553Z,10048.00
2018-07-30T09:34:03.651Z,10424.00
2018-07-30T09:35:03.830Z,9724.00
2018-07-30T09:37:46.760Z,10000.00
2018-07-30T09:38:46.970Z,9844.00
2018-07-30T09:39:47.149Z,8812.00
2018-07-30T09:40:47.346Z,9140.00
2018-07-30T09:41:47.549Z,8372.00
2018-07-30T09:42:47.742Z,8180.00
2018-07-30T09:43:47.929Z,7760.00
2018-07-30T09:44:48.149Z,6816.00
2018-07-30T09:45:48.355Z,7836.00
2018-07-30T09:46:48.514Z,7708.00
2018-07-30T09:47:48.711Z,7940.00
2018-07-30T09:48:48.939Z,7516.00
2018-07-30T09:49:49.112Z,6844.00
2018-07-30T09:50:49.301Z,6704.00
2018-07-30T09:51:49.495Z,6512.00
2018-07-30T09:52:49.678Z,7052.00
2018-07-30T09:53:49.877Z,6996.00
2018-07-30T09:54:50.074Z,6492.00
2018-07-30T09:55:50.272Z,6604.00
2018-07-30T09:56:50.460Z,6468.00
2018-07-30T09:57:50.664Z,5544.00
2018-07-30T09:58:50.863Z,5012.00
2018-07-30T09:59:51.062Z,5124.00
2018-07-30T10:00:51.248Z,5108.00
2018-07-30T10:01:51.448Z,6412.00
2018-07-30T10:02:51.650Z,6640.00
2018-07-30T10:03:51.847Z,6556.00
2018-07-30T10:04:52.049Z,6316.00
2018-07-30T10:05:52.249Z,6140.00
2018-07-30T10:06:52.431Z,6624.00
2018-07-30T10:07:52.629Z,6800.00
2018-07-30T10:08:52.813Z,6680.00
2018-07-30T10:09:53.014Z,6632.00
2018-07-30T10:10:53.235Z,6876.00
2018-07-30T10:11:53.450Z,7028.00
2018-07-30T10:12:53.627Z,6992.00
2018-07-30T10:13:53.822Z,6692.00
2018-07-30T10:14:54.016Z,6300.00
2018-07-30T10:15:54.216Z,5112.00
2018-07-30T10:16:54.416Z,4940.00
2018-07-30T10:17:54.660Z,5328.00
2018-07-30T10:18:54.799Z,5304.00
2018-07-30T10:19:54.996Z,5572.00
2018-07-30T10:20:55.186Z,5544.00
2018-07-30T10:21:55.378Z,5052.00
2018-07-30T10:22:55.564Z,4540.00
2018-07-30T10:23:55.762Z,4672.00
2018-07-30T10:24:55.986Z,4592.00
2018-07-30T10:25:56.173Z,4524.00
2018-07-30T10:26:56.378Z,5348.00
2018-07-30T10:27:56.578Z,4892.00
2018-07-30T10:28:56.766Z,4412.00
2018-07-30T10:29:56.956Z,4768.00
2018-07-30T10:30:57.143Z,4972.00
2018-07-30T10:31:57.330Z,5088.00
2018-07-30T10:32:57.571Z,5196.00
2018-07-30T10:33:57.718Z,5812.00
2018-07-30T10:34:57.902Z,5652.00
2018-07-30T10:35:58.123Z,5212.00
2018-07-30T10:36:58.302Z,5116.00
2018-07-30T10:37:58.581Z,5652.00
2018-07-30T10:38:58.720Z,5480.00
2018-07-30T10:39:58.994Z,5340.00
2018-07-30T10:40:59.086Z,5276.00
2018-07-30T10:41:59.277Z,5500.00
2018-07-30T10:42:59.456Z,4752.00
2018-07-30T10:43:59.677Z,5124.00
2018-07-30T10:44:59.885Z,5656.00
2018-07-30T10:46:00.089Z,5920.00
2018-07-30T10:47:00.279Z,5892.00
2018-07-30T10:48:00.478Z,5996.00
2018-07-30T10:49:00.668Z,5060.00
2018-07-30T10:50:00.863Z,4924.00
2018-07-30T10:51:01.061Z,4872.00
2018-07-30T10:52:01.268Z,4780.00
2018-07-30T10:53:01.446Z,4536.00
2018-07-30T10:54:01.658Z,4340.00
2018-07-30T10:55:01.853Z,4288.00
2018-07-30T10:56:02.046Z,4292.00
2018-07-30T10:57:02.236Z,4264.00
2018-07-30T10:58:02.415Z,4100.00
2018-07-30T10:59:02.606Z,4016.00
2018-07-30T11:00:02.807Z,4052.00
2018-07-30T11:01:03.017Z,4028.00
2018-07-30T11:02:03.207Z,4004.00
2018-07-30T11:04:46.140Z,4904.00
2018-07-30T11:05:46.353Z,4708.00
2018-07-30T11:06:46.536Z,5240.00
2018-07-30T11:07:46.725Z,5176.00
2018-07-30T11:08:46.921Z,4484.00
2018-07-30T11:09:47.183Z,4556.00
2018-07-30T11:10:47.300Z,4588.00
2018-07-30T11:11:47.474Z,4652.00
2018-07-30T11:12:47.674Z,4756.00
2018-07-30T11:13:47.868Z,4852.00
2018-07-30T11:14:48.076Z,4964.00
2018-07-30T11:15:48.240Z,5044.00
2018-07-30T11:16:48.441Z,5176.00
2018-07-30T11:17:48.634Z,5320.00
2018-07-30T11:18:48.828Z,5392.00
2018-07-30T11:19:49.016Z,5984.00
2018-07-30T11:20:49.246Z,5672.00
2018-07-30T11:21:49.424Z,5928.00
2018-07-30T11:22:49.640Z,6496.00
2018-07-30T11:23:49.816Z,6388.00
2018-07-30T11:24:49.996Z,6384.00
2018-07-30T11:25:50.185Z,6344.00
2018-07-30T11:26:50.387Z,6404.00
2018-07-30T11:27:50.626Z,6532.00
2018-07-30T11:28:50.754Z,6572.00
2018-07-30T11:29:50.949Z,6624.00
2018-07-30T11:30:51.138Z,6232.00
2018-07-30T11:31:51.352Z,6640.00
2018-07-30T11:32:51.535Z,6592.00
2018-07-30T11:33:51.740Z,6584.00
2018-07-30T11:34:51.935Z,6584.00
2018-07-30T11:35:52.120Z,6588.00
2018-07-30T11:36:52.316Z,5768.00
2018-07-30T11:37:52.512Z,6056.00
2018-07-30T11:38:52.698Z,5204.00
2018-07-30T11:39:52.923Z,5220.00
2018-07-30T11:40:53.151Z,4720.00
2018-07-30T11:41:53.351Z,4524.00
2018-07-30T11:42:53.567Z,4356.00
2018-07-30T11:43:53.747Z,4196.00
2018-07-30T11:44:53.952Z,4076.00
2018-07-30T11:45:54.140Z,4032.00
2018-07-30T11:46:54.324Z,4080.00
2018-07-30T11:47:54.516Z,5108.00
2018-07-30T11:48:54.730Z,5276.00
2018-07-30T11:49:54.923Z,5396.00
2018-07-30T11:50:55.119Z,5432.00
2018-07-30T11:51:55.326Z,5420.00
2018-07-30T11:52:55.537Z,5320.00
2018-07-30T11:53:55.811Z,5144.00
2018-07-30T11:54:55.902Z,5072.00
2018-07-30T11:55:56.092Z,5040.00
2018-07-30T11:56:56.287Z,4832.00
2018-07-30T11:57:56.477Z,4660.00
2018-07-30T11:58:56.675Z,4116.00
2018-07-30T11:59:56.868Z,4708.00
2018-07-30T12:00:57.088Z,4136.00
2018-07-30T12:01:57.268Z,4180.00
2018-07-30T12:02:57.455Z,4160.00
2018-07-30T12:03:57.641Z,4624.00
2018-07-30T12:04:57.825Z,4896.00
2018-07-30T12:05:58.015Z,4772.00
2018-07-30T12:06:58.205Z,4732.00
2018-07-30T12:07:58.393Z,4720.00
2018-07-30T12:08:58.583Z,4724.00
2018-07-30T12:09:58.788Z,4772.00
2018-07-30T12:10:58.995Z,4824.00
2018-07-30T12:11:59.186Z,4816.00
2018-07-30T12:12:59.378Z,4880.00
2018-07-30T12:13:59.575Z,4852.00
2018-07-30T12:14:59.771Z,4792.00
2018-07-30T12:15:59.963Z,4772.00
2018-07-30T12:17:00.161Z,4800.00
2018-07-30T12:18:00.352Z,4716.00
2018-07-30T12:19:00.537Z,4696.00
2018-07-30T12:20:00.726Z,4640.00
2018-07-30T12:21:00.936Z,4656.00
2018-07-30T12:22:01.129Z,4596.00
2018-07-30T12:23:01.371Z,4432.00
2018-07-30T12:24:01.564Z,4404.00
2018-07-30T12:25:01.776Z,4380.00
2018-07-30T12:26:01.961Z,4444.00
2018-07-30T12:27:02.152Z,4504.00
2018-07-30T12:28:02.362Z,4508.00
2018-07-30T12:29:02.564Z,4572.00
2018-07-30T12:30:02.805Z,4668.00
2018-07-30T12:31:02.961Z,4724.00
2018-07-30T12:32:03.157Z,4760.00
2018-07-30T12:33:03.448Z,4792.00